createdAt,value
2022-07-29T00:00:02.371Z,100580.53
2022-07-29T00:02:33.674Z,100575.53
2022-07-29T00:05:03.256Z,100581.09
2022-07-29T00:07:32.955Z,100585.00
2022-07-29T00:10:00.794Z,100583.34
2022-07-29T00:12:29.852Z,100580.16
2022-07-29T00:14:58.736Z,100569.41
2022-07-29T00:17:26.909Z,100575.81
2022-07-29T00:19:54.745Z,100562.44
2022-07-29T00:22:22.441Z,100569.66
2022-07-29T00:24:51.412Z,100581.34
2022-07-29T00:27:21.003Z,100578.69
2022-07-29T00:29:49.688Z,100572.75
2022-07-29T00:32:17.266Z,100593.69
2022-07-29T00:35:03.381Z,100583.63
2022-07-29T00:37:30.930Z,100568.03
2022-07-29T00:39:58.335Z,100567.16
2022-07-29T00:42:27.129Z,100554.31
2022-07-29T00:44:58.206Z,100560.56
2022-07-29T00:47:26.410Z,100560.69
2022-07-29T00:49:54.604Z,100547.03
2022-07-29T00:52:22.912Z,100551.22
2022-07-29T00:54:50.882Z,100549.00
2022-07-29T00:57:18.727Z,100553.22
2022-07-29T00:59:47.380Z,100542.91
2022-07-29T01:02:15.279Z,100562.94
2022-07-29T01:04:43.139Z,100547.31
2022-07-29T01:07:11.853Z,100550.88
2022-07-29T01:09:45.895Z,100552.75
2022-07-29T01:12:25.663Z,100557.34
2022-07-29T01:14:55.230Z,100554.50
2022-07-29T01:17:27.730Z,100553.94
2022-07-29T01:20:02.279Z,100558.94
2022-07-29T01:22:35.717Z,100564.69
2022-07-29T01:25:42.459Z,100559.00
2022-07-29T01:28:36.443Z,100559.88
2022-07-29T01:31:07.659Z,100564.78
2022-07-29T01:33:52.114Z,100561.03
2022-07-29T01:36:35.055Z,100556.41
2022-07-29T01:39:12.065Z,100556.25
2022-07-29T01:41:58.850Z,100547.63
2022-07-29T01:44:36.672Z,100547.81
2022-07-29T01:47:13.656Z,100554.38
2022-07-29T01:49:47.756Z,100548.94
2022-07-29T01:52:39.070Z,100551.56
2022-07-29T01:55:15.216Z,100548.78
2022-07-29T01:57:48.815Z,100547.94
2022-07-29T02:00:17.661Z,100545.72
2022-07-29T02:02:48.298Z,100552.66
2022-07-29T02:05:20.330Z,100552.97
2022-07-29T02:07:49.661Z,100553.28
2022-07-29T02:10:21.698Z,100552.16
2022-07-29T02:12:56.090Z,100558.84
2022-07-29T02:15:29.737Z,100556.47
2022-07-29T02:18:09.240Z,100559.66
2022-07-29T02:20:39.109Z,100561.34
2022-07-29T02:23:08.657Z,100555.38
2022-07-29T02:25:37.631Z,100558.03
2022-07-29T02:28:08.373Z,100563.19
2022-07-29T02:30:43.580Z,100563.31
2022-07-29T02:33:15.701Z,100558.56
2022-07-29T02:35:45.646Z,100553.56
2022-07-29T02:38:35.331Z,100557.44
2022-07-29T02:41:09.516Z,100561.78
2022-07-29T02:43:38.275Z,100555.91
2022-07-29T02:46:28.301Z,100568.03
2022-07-29T02:49:10.942Z,100568.47
2022-07-29T02:51:47.669Z,100564.69
2022-07-29T02:54:43.491Z,100570.53
2022-07-29T02:57:23.223Z,100569.53
2022-07-29T02:59:55.656Z,100565.78
2022-07-29T03:02:26.219Z,100567.75
2022-07-29T03:04:58.349Z,100566.63
2022-07-29T03:07:27.134Z,100569.81
2022-07-29T03:09:57.106Z,100569.69
2022-07-29T03:12:24.957Z,100571.66
2022-07-29T03:14:54.959Z,100573.88
2022-07-29T03:17:25.043Z,100570.94
2022-07-29T03:19:53.789Z,100570.94
2022-07-29T03:22:21.715Z,100566.47
2022-07-29T03:24:49.234Z,100565.50
2022-07-29T03:27:18.599Z,100562.47
2022-07-29T03:29:50.044Z,100561.19
2022-07-29T03:32:19.977Z,100563.00
2022-07-29T03:34:51.507Z,100562.03
2022-07-29T03:37:19.280Z,100573.88
2022-07-29T03:39:48.527Z,100558.84
2022-07-29T03:42:20.008Z,100564.66
2022-07-29T03:44:50.807Z,100573.47
2022-07-29T03:47:43.449Z,100572.19
2022-07-29T03:50:16.640Z,100567.19
2022-07-29T03:52:45.357Z,100572.19
2022-07-29T03:55:14.619Z,100570.09
2022-07-29T03:57:43.130Z,100566.34
2022-07-29T04:00:11.883Z,100567.84
2022-07-29T04:02:40.350Z,100574.69
2022-07-29T04:05:14.345Z,100569.97
2022-07-29T04:07:45.995Z,100563.97
2022-07-29T04:10:17.233Z,100564.09
2022-07-29T04:12:44.618Z,100568.28
2022-07-29T04:15:12.517Z,100569.69
2022-07-29T04:17:39.934Z,100578.59
2022-07-29T04:20:08.118Z,100576.94
2022-07-29T04:22:35.561Z,100584.31
2022-07-29T04:25:04.201Z,100584.88
2022-07-29T04:27:31.818Z,100598.63
2022-07-29T04:29:59.192Z,100599.50
2022-07-29T04:32:27.157Z,100600.09
2022-07-29T04:34:54.584Z,100601.72
2022-07-29T04:37:21.898Z,100609.28
2022-07-29T04:39:49.288Z,100608.13
2022-07-29T04:42:16.651Z,100606.69
2022-07-29T04:44:44.745Z,100603.06
2022-07-29T04:47:13.034Z,100608.06
2022-07-29T04:49:40.536Z,100622.03
2022-07-29T04:52:07.938Z,100631.16
2022-07-29T04:54:35.343Z,100636.25
2022-07-29T04:57:02.692Z,100628.66
2022-07-29T04:59:30.374Z,100633.69
2022-07-29T05:01:57.737Z,100628.66
2022-07-29T05:04:25.188Z,100628.38
2022-07-29T05:06:52.625Z,100637.59
2022-07-29T05:09:19.941Z,100634.75
2022-07-29T05:11:47.413Z,100647.34
2022-07-29T05:14:15.116Z,100659.03
2022-07-29T05:16:44.327Z,100663.19
2022-07-29T05:19:14.402Z,100659.53
2022-07-29T05:21:42.450Z,100659.81
2022-07-29T05:24:09.750Z,100662.19
2022-07-29T05:26:37.137Z,100663.19
2022-07-29T05:29:04.497Z,100658.41
2022-07-29T05:31:31.931Z,100654.22
2022-07-29T05:33:59.296Z,100657.88
2022-07-29T05:36:27.112Z,100659.25
2022-07-29T05:38:54.489Z,100660.66
2022-07-29T05:41:22.118Z,100659.63
2022-07-29T05:43:49.486Z,100662.81
2022-07-29T05:46:17.077Z,100662.41
2022-07-29T05:48:44.513Z,100658.28
2022-07-29T05:51:11.971Z,100664.06
2022-07-29T05:53:39.305Z,100667.91
2022-07-29T05:56:07.399Z,100660.34
2022-07-29T05:58:34.777Z,100652.63
2022-07-29T06:01:02.554Z,100656.84
2022-07-29T06:03:30.033Z,100646.25
2022-07-29T06:05:57.522Z,100649.53
2022-07-29T06:08:24.850Z,100656.72
2022-07-29T06:10:52.288Z,100659.81
2022-07-29T06:13:21.875Z,100662.91
2022-07-29T06:15:49.554Z,100660.34
2022-07-29T06:18:16.965Z,100660.25
2022-07-29T06:20:44.299Z,100652.91
2022-07-29T06:23:11.717Z,100651.25
2022-07-29T06:25:41.276Z,100648.50
2022-07-29T06:28:08.718Z,100643.56
2022-07-29T06:30:36.335Z,100643.69
2022-07-29T06:33:03.981Z,100646.16
2022-07-29T06:35:39.081Z,100649.59
2022-07-29T06:38:31.461Z,100639.50
2022-07-29T06:41:18.116Z,100649.22
2022-07-29T06:43:52.465Z,100650.53
2022-07-29T06:46:23.500Z,100647.59
2022-07-29T06:48:53.128Z,100645.97
2022-07-29T06:51:22.344Z,100650.97
2022-07-29T06:54:00.120Z,100644.84
2022-07-29T06:56:39.226Z,100657.13
2022-07-29T06:59:10.113Z,100659.63
2022-07-29T07:01:40.151Z,100666.66
2022-07-29T07:04:09.985Z,100667.84
2022-07-29T07:06:38.838Z,100664.25
2022-07-29T07:09:06.557Z,100668.94
2022-07-29T07:11:34.877Z,100669.97
2022-07-29T07:14:14.499Z,100667.31
2022-07-29T07:16:42.187Z,100671.69
2022-07-29T07:19:09.441Z,100665.00
2022-07-29T07:21:36.756Z,100668.03
2022-07-29T07:24:04.479Z,100676.81
2022-07-29T07:26:32.109Z,100683.00
2022-07-29T07:29:01.272Z,100682.00
2022-07-29T07:31:28.864Z,100676.34
2022-07-29T07:33:56.312Z,100671.03
2022-07-29T07:36:24.316Z,100676.03
2022-07-29T07:38:51.538Z,100679.69
2022-07-29T07:41:18.837Z,100675.00
2022-07-29T07:43:46.304Z,100686.19
2022-07-29T07:46:13.919Z,100673.19
2022-07-29T07:48:41.716Z,100674.69
2022-07-29T07:51:09.343Z,100673.91
2022-07-29T07:53:36.749Z,100674.97
2022-07-29T07:56:11.013Z,100667.59
2022-07-29T07:58:39.824Z,100656.88
2022-07-29T08:01:08.133Z,100659.22
2022-07-29T08:03:36.046Z,100647.63
2022-07-29T08:06:04.754Z,100648.47
2022-07-29T08:08:32.390Z,100643.28
2022-07-29T08:11:02.223Z,100648.84
2022-07-29T08:13:33.526Z,100650.91
2022-07-29T08:16:02.549Z,100643.50
2022-07-29T08:18:30.799Z,100644.66
2022-07-29T08:20:58.762Z,100644.97
2022-07-29T08:23:32.940Z,100645.44
2022-07-29T08:26:14.303Z,100649.50
2022-07-29T08:28:46.679Z,100636.75
2022-07-29T08:31:17.211Z,100637.88
2022-07-29T08:33:45.538Z,100641.19
2022-07-29T08:36:14.068Z,100633.41
2022-07-29T08:38:41.518Z,100631.16
2022-07-29T08:41:09.003Z,100633.72
2022-07-29T08:43:38.416Z,100626.31
2022-07-29T08:46:05.953Z,100625.88
2022-07-29T08:48:33.934Z,100626.06
2022-07-29T08:51:05.167Z,100628.78
2022-07-29T08:53:33.251Z,100624.47
2022-07-29T08:56:01.012Z,100627.22
2022-07-29T08:58:33.169Z,100622.34
2022-07-29T09:01:04.842Z,100629.59
2022-07-29T09:03:38.343Z,100620.00
2022-07-29T09:06:06.386Z,100626.38
2022-07-29T09:08:34.579Z,100629.06
2022-07-29T09:11:05.393Z,100625.78
2022-07-29T09:13:33.212Z,100633.88
2022-07-29T09:16:02.576Z,100625.78
2022-07-29T09:18:41.425Z,100624.66
2022-07-29T09:21:30.555Z,100609.91
2022-07-29T09:24:10.230Z,100615.72
2022-07-29T09:26:42.858Z,100602.84
2022-07-29T09:29:10.534Z,100597.16
2022-07-29T09:31:43.902Z,100589.59
2022-07-29T09:34:12.682Z,100584.03
2022-07-29T09:36:45.472Z,100585.84
2022-07-29T09:39:13.916Z,100595.28
2022-07-29T09:41:55.571Z,100594.38
2022-07-29T09:44:24.585Z,100593.53
2022-07-29T09:47:06.741Z,100594.25
2022-07-29T09:50:00.795Z,100602.63
2022-07-29T09:52:30.019Z,100593.63
2022-07-29T09:55:08.429Z,100594.75
2022-07-29T09:57:35.991Z,100588.31
2022-07-29T10:00:08.129Z,100593.31
2022-07-29T10:02:46.966Z,100582.09
2022-07-29T10:05:22.553Z,100590.25
2022-07-29T10:07:57.449Z,100588.81
2022-07-29T10:10:26.389Z,100590.47
2022-07-29T10:13:01.832Z,100578.88
2022-07-29T10:15:41.704Z,100582.63
2022-07-29T10:18:09.376Z,100580.94
2022-07-29T10:20:36.890Z,100574.75
2022-07-29T10:23:04.839Z,100582.44
2022-07-29T10:25:32.700Z,100570.63
2022-07-29T10:28:00.305Z,100566.69
2022-07-29T10:30:28.402Z,100569.75
2022-07-29T10:33:19.250Z,100556.47
2022-07-29T10:35:58.682Z,100575.13
2022-07-29T10:38:35.709Z,100567.28
2022-07-29T10:41:27.270Z,100565.66
2022-07-29T10:44:01.647Z,100569.31
2022-07-29T10:46:35.516Z,100554.91
2022-07-29T10:49:11.366Z,100561.09
2022-07-29T10:52:01.886Z,100558.19
2022-07-29T10:54:52.605Z,100555.72
2022-07-29T10:57:53.994Z,100555.28
2022-07-29T11:00:18.760Z,100547.03
2022-07-29T11:02:53.030Z,100540.38
2022-07-29T11:05:32.295Z,100547.00
2022-07-29T11:08:19.605Z,100546.22
2022-07-29T11:10:54.346Z,100533.72
2022-07-29T11:17:00.308Z,100523.38
2022-07-29T11:19:30.468Z,100514.97
2022-07-29T11:21:59.269Z,100523.28
2022-07-29T11:24:29.991Z,100519.06
2022-07-29T11:30:04.825Z,100516.16
2022-07-29T11:32:39.839Z,100528.31
2022-07-29T11:35:38.394Z,100517.06
2022-07-29T11:38:28.631Z,100514.72
2022-07-29T11:41:25.212Z,100509.84
2022-07-29T11:43:59.128Z,100504.75
2022-07-29T11:46:53.917Z,100507.59
2022-07-29T11:49:32.628Z,100518.50
2022-07-29T11:52:05.595Z,100510.78
2022-07-29T11:54:57.276Z,100502.44
2022-07-29T11:57:35.965Z,100502.44
2022-07-29T12:03:03.860Z,100517.66
2022-07-29T12:05:38.470Z,100507.91
2022-07-29T12:07:01.386Z,100518.16
2022-07-29T12:08:23.643Z,100493.25
2022-07-29T12:10:51.643Z,100497.38
2022-07-29T12:13:21.410Z,100495.50
2022-07-29T12:16:00.109Z,100486.94
2022-07-29T12:18:29.037Z,100487.91
2022-07-29T12:21:04.711Z,100492.34
2022-07-29T12:23:35.763Z,100492.47
2022-07-29T12:26:10.576Z,100492.97
2022-07-29T12:28:40.072Z,100480.19
2022-07-29T12:31:15.193Z,100485.78
2022-07-29T12:34:05.052Z,100476.63
2022-07-29T12:36:33.442Z,100461.31
2022-07-29T12:39:01.170Z,100472.78
2022-07-29T12:41:30.058Z,100471.56
2022-07-29T12:43:57.852Z,100462.88
2022-07-29T12:46:25.924Z,100468.63
2022-07-29T12:48:58.359Z,100461.41
2022-07-29T12:51:33.659Z,100458.03
2022-07-29T12:54:04.096Z,100460.78
2022-07-29T12:56:46.839Z,100452.69
2022-07-29T12:59:18.754Z,100457.41
2022-07-29T13:01:51.552Z,100456.25
2022-07-29T13:04:33.832Z,100445.66
2022-07-29T13:07:08.345Z,100447.38
2022-07-29T13:09:43.690Z,100452.47
2022-07-29T13:12:13.061Z,100434.44
2022-07-29T13:14:45.632Z,100434.13
2022-07-29T13:17:14.481Z,100431.19
2022-07-29T13:19:53.169Z,100413.81
2022-07-29T13:22:26.572Z,100416.16
2022-07-29T13:25:04.676Z,100397.22
2022-07-29T13:27:34.052Z,100402.16
2022-07-29T13:30:03.036Z,100399.81
2022-07-29T13:32:32.190Z,100395.53
2022-07-29T13:35:05.777Z,100393.16
2022-07-29T13:37:36.643Z,100398.16
2022-07-29T13:40:05.151Z,100385.22
2022-07-29T13:42:39.480Z,100382.50
2022-07-29T13:45:08.308Z,100383.13
2022-07-29T13:47:36.087Z,100379.19
2022-07-29T13:50:06.768Z,100383.03
2022-07-29T13:52:36.903Z,100379.06
2022-07-29T13:55:09.243Z,100371.78
2022-07-29T13:57:36.791Z,100359.13
2022-07-29T14:00:05.227Z,100360.34
2022-07-29T14:02:36.059Z,100352.41
2022-07-29T14:05:08.313Z,100346.41
2022-07-29T14:07:37.487Z,100351.19
2022-07-29T14:10:05.836Z,100347.31
2022-07-29T14:12:33.472Z,100348.97
2022-07-29T14:15:01.280Z,100350.75
2022-07-29T14:17:28.940Z,100345.94
2022-07-29T14:19:56.345Z,100341.00
2022-07-29T14:22:26.175Z,100349.25
2022-07-29T14:24:54.045Z,100344.75
2022-07-29T14:27:38.025Z,100365.84
2022-07-29T14:30:07.383Z,100349.69
2022-07-29T14:32:34.816Z,100364.78
2022-07-29T14:35:02.403Z,100373.09
2022-07-29T14:37:37.553Z,100368.03
2022-07-29T14:40:10.212Z,100360.63
2022-07-29T14:42:38.644Z,100358.13
2022-07-29T14:45:07.971Z,100359.34
2022-07-29T14:47:35.844Z,100365.63
2022-07-29T14:50:04.209Z,100367.69
2022-07-29T14:52:31.872Z,100377.06
2022-07-29T14:54:59.493Z,100372.78
2022-07-29T14:57:27.099Z,100372.69
2022-07-29T14:59:54.664Z,100356.63
2022-07-29T15:02:25.592Z,100370.69
2022-07-29T15:04:59.214Z,100360.00
2022-07-29T15:07:26.942Z,100374.50
2022-07-29T15:09:58.061Z,100356.75
2022-07-29T15:12:27.759Z,100366.72
2022-07-29T15:14:56.072Z,100358.81
2022-07-29T15:17:23.880Z,100348.94
2022-07-29T15:19:51.417Z,100355.09
2022-07-29T15:22:18.992Z,100353.50
2022-07-29T15:24:59.880Z,100352.66
2022-07-29T15:27:27.480Z,100357.22
2022-07-29T15:29:54.834Z,100362.63
2022-07-29T15:32:22.507Z,100365.53
2022-07-29T15:34:52.664Z,100360.56
2022-07-29T15:37:20.597Z,100353.81
2022-07-29T15:39:48.103Z,100369.50
2022-07-29T15:42:17.782Z,100372.19
2022-07-29T15:44:45.362Z,100370.56
2022-07-29T15:47:12.916Z,100375.94
2022-07-29T15:49:46.549Z,100385.03
2022-07-29T15:52:25.877Z,100383.13
2022-07-29T15:54:56.203Z,100394.34
2022-07-29T15:57:24.692Z,100400.72
2022-07-29T15:59:54.333Z,100406.91
2022-07-29T16:02:21.933Z,100409.00
2022-07-29T16:04:51.504Z,100415.63
2022-07-29T16:07:19.645Z,100421.41
2022-07-29T16:09:52.780Z,100417.66
2022-07-29T16:12:22.573Z,100410.88
2022-07-29T16:14:51.280Z,100411.06
2022-07-29T16:17:22.998Z,100412.72
2022-07-29T16:19:50.723Z,100406.84
2022-07-29T16:22:21.709Z,100409.53
2022-07-29T16:24:49.442Z,100399.84
2022-07-29T16:27:17.178Z,100388.06
2022-07-29T16:29:47.947Z,100395.59
2022-07-29T16:32:22.150Z,100385.13
2022-07-29T16:34:50.211Z,100386.50
2022-07-29T16:37:17.684Z,100377.44
2022-07-29T16:39:46.212Z,100397.38
2022-07-29T16:42:31.009Z,100385.88
2022-07-29T16:45:04.584Z,100403.00
2022-07-29T16:47:33.532Z,100413.41
2022-07-29T16:50:03.888Z,100423.59
2022-07-29T16:52:32.555Z,100435.47
2022-07-29T16:54:59.869Z,100423.22
2022-07-29T16:57:27.241Z,100420.63
2022-07-29T16:59:54.628Z,100436.03
2022-07-29T17:02:22.103Z,100433.38
2022-07-29T17:04:49.661Z,100429.13
2022-07-29T17:07:17.069Z,100441.84
2022-07-29T17:09:44.404Z,100437.50
2022-07-29T17:12:11.846Z,100445.53
2022-07-29T17:14:39.351Z,100464.31
2022-07-29T17:17:13.572Z,100466.00
2022-07-29T17:19:43.441Z,100456.22
2022-07-29T17:22:15.868Z,100458.06
2022-07-29T17:24:47.547Z,100455.84
2022-07-29T17:27:16.622Z,100461.94
2022-07-29T17:29:44.646Z,100451.78
2022-07-29T17:32:12.346Z,100452.16
2022-07-29T17:34:40.899Z,100450.66
2022-07-29T17:37:10.871Z,100438.31
2022-07-29T17:39:41.154Z,100438.38
2022-07-29T17:42:10.452Z,100441.91
2022-07-29T17:44:38.586Z,100436.38
2022-07-29T17:47:07.954Z,100447.03
2022-07-29T17:49:44.136Z,100441.78
2022-07-29T17:52:11.535Z,100433.28
2022-07-29T17:54:38.879Z,100437.91
2022-07-29T17:57:06.175Z,100446.69
2022-07-29T17:59:33.522Z,100442.53
2022-07-29T18:02:00.914Z,100439.31
2022-07-29T18:04:29.134Z,100438.06
2022-07-29T18:06:56.873Z,100444.06
2022-07-29T18:09:25.633Z,100447.69
2022-07-29T18:11:53.039Z,100447.44
2022-07-29T18:14:29.201Z,100448.66
2022-07-29T18:16:56.851Z,100456.16
2022-07-29T18:19:24.715Z,100459.88
2022-07-29T18:21:55.186Z,100464.88
2022-07-29T18:24:27.390Z,100465.38
2022-07-29T18:26:54.886Z,100460.88
2022-07-29T18:29:22.300Z,100461.59
2022-07-29T18:31:50.129Z,100463.84
2022-07-29T18:34:17.782Z,100465.97
2022-07-29T18:36:46.087Z,100469.03
2022-07-29T18:39:20.788Z,100482.69
2022-07-29T18:41:51.356Z,100485.28
2022-07-29T18:44:21.837Z,100494.75
2022-07-29T18:46:51.865Z,100491.91
2022-07-29T18:49:20.519Z,100493.34
2022-07-29T18:51:48.637Z,100493.66
2022-07-29T18:54:20.053Z,100488.00
2022-07-29T18:56:47.562Z,100503.72
2022-07-29T18:59:17.051Z,100501.72
2022-07-29T19:01:44.629Z,100502.69
2022-07-29T19:04:12.335Z,100497.00
2022-07-29T19:06:40.804Z,100503.16
2022-07-29T19:09:11.137Z,100520.69
2022-07-29T19:11:38.981Z,100525.38
2022-07-29T19:14:06.735Z,100548.59
2022-07-29T19:16:34.422Z,100557.59
2022-07-29T19:19:01.846Z,100561.78
2022-07-29T19:21:29.714Z,100572.25
2022-07-29T19:24:00.111Z,100563.44
2022-07-29T19:26:36.283Z,100550.00
2022-07-29T19:29:04.358Z,100540.97
2022-07-29T19:31:31.813Z,100543.66
2022-07-29T19:33:59.332Z,100534.81
2022-07-29T19:36:27.405Z,100533.50
2022-07-29T19:38:54.862Z,100533.66
2022-07-29T19:41:22.299Z,100537.50
2022-07-29T19:43:52.854Z,100545.28
2022-07-29T19:46:21.520Z,100546.78
2022-07-29T19:48:49.180Z,100541.50
2022-07-29T19:51:17.456Z,100539.47
2022-07-29T19:53:44.774Z,100544.47
2022-07-29T19:56:12.115Z,100566.03
2022-07-29T19:58:40.789Z,100575.97
2022-07-29T20:01:10.217Z,100589.50
2022-07-29T20:03:40.027Z,100593.75
2022-07-29T20:06:08.428Z,100604.38
2022-07-29T20:08:36.393Z,100612.00
2022-07-29T20:11:03.836Z,100608.16
2022-07-29T20:13:33.142Z,100617.31
2022-07-29T20:16:02.081Z,100612.94
2022-07-29T20:18:29.561Z,100616.81
2022-07-29T20:20:57.614Z,100619.97
2022-07-29T20:23:25.166Z,100630.44
2022-07-29T20:25:52.689Z,100629.50
2022-07-29T20:28:22.610Z,100630.22
2022-07-29T20:30:50.016Z,100629.16
2022-07-29T20:33:17.561Z,100624.91
2022-07-29T20:35:44.862Z,100636.94
2022-07-29T20:38:15.135Z,100628.63
2022-07-29T20:40:45.697Z,100627.09
2022-07-29T20:43:13.284Z,100631.63
2022-07-29T20:45:40.646Z,100627.50
2022-07-29T20:48:08.165Z,100628.63
2022-07-29T20:50:35.928Z,100626.91
2022-07-29T20:53:03.287Z,100624.69
2022-07-29T20:55:32.119Z,100623.91
2022-07-29T20:57:59.522Z,100624.47
2022-07-29T21:00:27.059Z,100638.75
2022-07-29T21:02:54.597Z,100632.81
2022-07-29T21:05:22.033Z,100631.16
2022-07-29T21:07:49.410Z,100618.59
2022-07-29T21:10:18.320Z,100619.69
2022-07-29T21:12:46.596Z,100617.56
2022-07-29T21:15:20.562Z,100616.59
2022-07-29T21:17:48.576Z,100631.53
2022-07-29T21:20:16.323Z,100628.22
2022-07-29T21:22:44.156Z,100630.47
2022-07-29T21:25:12.052Z,100630.84
2022-07-29T21:27:58.043Z,100630.63
2022-07-29T21:30:25.411Z,100632.28
2022-07-29T21:32:52.759Z,100620.84
2022-07-29T21:36:01.944Z,100616.44
2022-07-29T21:38:07.563Z,100614.47
2022-07-29T21:40:34.866Z,100618.38
2022-07-29T21:43:02.366Z,100615.44
2022-07-29T21:45:30.418Z,100610.28
2022-07-29T21:47:57.726Z,100617.88
2022-07-29T21:50:25.206Z,100615.94
2022-07-29T21:52:52.662Z,100626.53
2022-07-29T21:55:20.625Z,100622.91
2022-07-29T21:57:49.911Z,100618.84
2022-07-29T22:00:17.253Z,100623.47
2022-07-29T22:02:45.476Z,100621.19
2022-07-29T22:05:13.492Z,100621.19
2022-07-29T22:07:55.568Z,100608.38
2022-07-29T22:10:25.877Z,100598.63
2022-07-29T22:12:55.069Z,100601.69
2022-07-29T22:15:23.125Z,100596.66
2022-07-29T22:17:50.909Z,100585.22
2022-07-29T22:20:18.383Z,100586.31
2022-07-29T22:22:46.704Z,100585.47
2022-07-29T22:25:14.391Z,100580.91
2022-07-29T22:27:41.740Z,100571.78
2022-07-29T22:30:09.887Z,100577.97
2022-07-29T22:32:37.271Z,100576.28
2022-07-29T22:35:05.092Z,100571.78
2022-07-29T22:37:32.487Z,100566.75
2022-07-29T22:39:59.906Z,100562.44
2022-07-29T22:42:27.225Z,100565.41
2022-07-29T22:44:54.698Z,100555.72
2022-07-29T22:47:38.851Z,100553.91
2022-07-29T22:50:09.753Z,100556.63
2022-07-29T22:52:37.214Z,100549.94
2022-07-29T22:55:05.002Z,100553.53
2022-07-29T22:57:32.483Z,100553.25
2022-07-29T23:00:02.518Z,100545.31
2022-07-29T23:02:30.094Z,100548.81
2022-07-29T23:04:57.498Z,100537.69
2022-07-29T23:07:25.041Z,100534.75
2022-07-29T23:09:52.573Z,100536.00
2022-07-29T23:12:23.203Z,100522.63
2022-07-29T23:14:50.682Z,100519.84
2022-07-29T23:17:18.304Z,100522.06
2022-07-29T23:19:45.848Z,100511.59
2022-07-29T23:22:13.254Z,100518.16
2022-07-29T23:24:41.200Z,100507.28
2022-07-29T23:27:08.666Z,100504.53
2022-07-29T23:29:36.925Z,100515.91
2022-07-29T23:32:04.914Z,100507.59
2022-07-29T23:34:32.702Z,100512.59
2022-07-29T23:37:00.554Z,100505.78
2022-07-29T23:39:28.217Z,100504.50
2022-07-29T23:41:56.256Z,100520.66
2022-07-29T23:44:23.649Z,100511.28
2022-07-29T23:46:51.412Z,100515.03
2022-07-29T23:49:19.152Z,100506.97
2022-07-29T23:51:46.828Z,100497.00
2022-07-29T23:54:14.503Z,100504.34
2022-07-29T23:56:41.961Z,100496.00
2022-07-29T23:59:09.457Z,100502.81
